Time;durP1;ratioP1;P1;durP2;ratioP2;P2;SDS_P1;SDS_P2;PMS_P1;PMS_P2;Temp;Humidity;BMP_temperature;BMP_pressure;BME280_temperature;BME280_humidity;BME280_pressure;Samples;Min_cycle;Max_cycle;Signal;HPM_P1;HPM_P2
2023/05/05 00:02:03;;;;;;;8.47;5.27;;;14.60;65.80;;;;;;5066270;28;20466;-66
2023/05/05 00:04:48;;;;;;;10.00;5.40;;;14.60;65.90;;;;;;5071196;28;20456;-67
2023/05/05 00:07:22;;;;;;;8.73;5.30;;;14.60;66.10;;;;;;5070977;28;20462;-66
2023/05/05 00:09:55;;;;;;;8.10;5.30;;;14.50;66.10;;;;;;5071717;28;20444;-66
2023/05/05 00:12:27;;;;;;;9.67;6.10;;;14.50;66.10;;;;;;5069099;28;20457;-67
2023/05/05 00:15:04;;;;;;;8.97;5.00;;;14.50;66.10;;;;;;5073977;28;21144;-67
2023/05/05 00:17:44;;;;;;;10.83;5.93;;;14.40;66.20;;;;;;5066564;28;20454;-67
2023/05/05 00:20:17;;;;;;;10.00;6.50;;;14.40;66.40;;;;;;5071438;28;20472;-66
2023/05/05 00:22:48;;;;;;;8.40;6.00;;;14.40;66.40;;;;;;5068716;28;20861;-65
2023/05/05 00:25:28;;;;;;;10.00;5.67;;;14.30;66.40;;;;;;5052573;28;20450;-66
2023/05/05 00:28:01;;;;;;;14.10;5.63;;;14.30;66.60;;;;;;5072517;28;20475;-65
2023/05/05 00:30:37;;;;;;;7.50;5.63;;;14.40;66.60;;;;;;5062068;28;20524;-66
2023/05/05 00:33:09;;;;;;;12.80;6.37;;;14.30;66.60;;;;;;5069799;28;20825;-66
2023/05/05 00:35:52;;;;;;;11.10;5.37;;;14.30;66.60;;;;;;5069878;28;20500;-66
2023/05/05 00:38:26;;;;;;;9.20;6.07;;;14.30;66.90;;;;;;5069237;28;20488;-66
2023/05/05 00:41:00;;;;;;;11.17;6.30;;;14.30;66.90;;;;;;5068089;28;20868;-66
2023/05/05 00:43:31;;;;;;;14.90;6.30;;;14.30;66.90;;;;;;5069330;28;20920;-66
2023/05/05 00:46:16;;;;;;;9.00;5.63;;;14.30;66.90;;;;;;5070490;28;20486;-66
2023/05/05 00:49:01;;;;;;;7.37;5.10;;;14.30;67.00;;;;;;5070550;28;20453;-66
2023/05/05 00:51:36;;;;;;;9.13;6.10;;;14.20;67.00;;;;;;5066371;28;20449;-66
2023/05/05 00:54:06;;;;;;;12.47;5.43;;;14.20;67.10;;;;;;5068968;28;20482;-66
2023/05/05 00:56:44;;;;;;;8.70;5.43;;;14.20;67.20;;;;;;5068712;28;21340;-66
2023/05/05 00:59:13;;;;;;;9.40;5.93;;;14.20;67.20;;;;;;5070480;28;20453;-66
2023/05/05 01:01:52;;;;;;;8.27;5.67;;;14.20;67.30;;;;;;5065273;28;20812;-66
2023/05/05 01:04:28;;;;;;;9.07;5.13;;;14.20;67.40;;;;;;5070820;28;20450;-66
2023/05/05 01:07:24;;;;;;;9.43;5.33;;;14.30;67.50;;;;;;5067505;28;21010;-67
2023/05/05 01:09:59;;;;;;;10.90;5.60;;;14.30;67.60;;;;;;5068870;28;20913;-66
2023/05/05 01:13:00;;;;;;;9.03;5.70;;;14.20;67.60;;;;;;5068101;28;20547;-66
2023/05/05 01:15:37;;;;;;;9.80;5.90;;;14.20;67.70;;;;;;5064447;28;20500;-66
2023/05/05 01:18:12;;;;;;;9.43;5.40;;;14.20;67.80;;;;;;5068388;28;20526;-66
2023/05/05 01:21:00;;;;;;;10.57;5.93;;;14.20;67.80;;;;;;5067201;28;20493;-66
2023/05/05 01:24:06;;;;;;;9.10;5.97;;;14.20;67.90;;;;;;5066425;28;20465;-66
2023/05/05 01:27:13;;;;;;;9.73;5.60;;;14.20;68.00;;;;;;5067485;28;21012;-66
2023/05/05 01:29:57;;;;;;;10.07;5.40;;;14.20;68.00;;;;;;5068850;28;20495;-66
2023/05/05 01:32:53;;;;;;;10.07;5.80;;;14.20;68.10;;;;;;5065260;28;20614;-66
2023/05/05 01:35:35;;;;;;;9.60;5.97;;;14.10;68.20;;;;;;5063987;28;20505;-66
2023/05/05 01:38:18;;;;;;;10.10;5.13;;;14.10;68.20;;;;;;5067961;28;20456;-66
2023/05/05 01:40:59;;;;;;;13.30;6.03;;;14.10;68.30;;;;;;5066711;28;20487;-66
2023/05/05 01:43:38;;;;;;;7.60;5.40;;;14.10;68.30;;;;;;5066329;28;20458;-66
2023/05/05 01:46:14;;;;;;;8.83;5.70;;;14.20;68.40;;;;;;5065347;28;20461;-66
2023/05/05 01:48:53;;;;;;;8.10;5.30;;;14.20;68.40;;;;;;5066662;28;20453;-66
2023/05/05 01:51:30;;;;;;;13.07;7.03;;;14.20;68.40;;;;;;5067068;28;20454;-66
2023/05/05 01:54:10;;;;;;;9.70;5.97;;;14.20;68.50;;;;;;5065577;28;20462;-66
2023/05/05 01:56:46;;;;;;;9.97;5.37;;;14.20;68.50;;;;;;5069848;28;21058;-66
2023/05/05 01:59:15;;;;;;;10.33;6.00;;;14.20;68.60;;;;;;5066111;28;20465;-66
2023/05/05 02:01:56;;;;;;;10.33;6.23;;;14.20;68.60;;;;;;5065070;28;20474;-66
2023/05/05 02:04:38;;;;;;;10.23;6.13;;;14.10;68.70;;;;;;5063546;28;20518;-66
2023/05/05 02:07:15;;;;;;;9.87;5.70;;;14.20;68.70;;;;;;5069174;28;20464;-66
2023/05/05 02:09:49;;;;;;;10.03;6.00;;;14.20;68.80;;;;;;5065041;28;20458;-66
2023/05/05 02:12:28;;;;;;;8.77;5.57;;;14.20;68.80;;;;;;5066527;28;20526;-66
2023/05/05 02:15:04;;;;;;;8.10;5.40;;;14.20;68.80;;;;;;5067539;28;20938;-66
2023/05/05 02:17:34;;;;;;;13.00;5.30;;;14.20;68.80;;;;;;5064444;28;20457;-70
2023/05/05 02:20:12;;;;;;;9.83;4.87;;;14.10;68.80;;;;;;5067991;28;20458;-66
2023/05/05 02:22:44;;;;;;;11.00;5.03;;;14.20;68.90;;;;;;5062411;28;20462;-66
2023/05/05 02:25:22;;;;;;;11.67;6.20;;;14.10;68.90;;;;;;5071899;28;20981;-66
2023/05/05 02:28:00;;;;;;;11.90;5.83;;;14.10;69.00;;;;;;5081349;28;20957;-66
2023/05/05 02:30:32;;;;;;;10.23;5.23;;;14.10;68.90;;;;;;5066811;28;20483;-66
2023/05/05 02:33:19;;;;;;;8.37;5.30;;;14.10;69.00;;;;;;5066719;28;20484;-66
2023/05/05 02:35:55;;;;;;;8.47;5.53;;;14.10;69.00;;;;;;5066122;28;20470;-66
2023/05/05 02:38:30;;;;;;;7.93;5.23;;;14.00;69.10;;;;;;5067186;28;20450;-66
2023/05/05 02:41:08;;;;;;;8.00;4.90;;;14.00;69.10;;;;;;5067671;28;20461;-66
2023/05/05 02:43:45;;;;;;;11.40;6.17;;;14.00;69.10;;;;;;5065437;28;20563;-66
2023/05/05 02:46:18;;;;;;;9.87;5.57;;;13.90;69.20;;;;;;5065326;28;20515;-66
2023/05/05 02:48:53;;;;;;;8.77;5.50;;;13.90;69.20;;;;;;5079600;28;20550;-66
2023/05/05 02:51:31;;;;;;;13.60;6.27;;;13.90;69.20;;;;;;5066058;28;20457;-66
2023/05/05 02:54:11;;;;;;;11.20;6.30;;;13.80;69.30;;;;;;5068753;28;20476;-66
2023/05/05 02:56:49;;;;;;;9.87;6.00;;;13.80;69.40;;;;;;5066929;28;20518;-66
2023/05/05 02:59:35;;;;;;;11.00;6.03;;;13.80;69.50;;;;;;5067410;28;20535;-66
2023/05/05 03:02:24;;;;;;;8.83;6.10;;;13.70;69.60;;;;;;5066255;28;20836;-66
2023/05/05 03:05:04;;;;;;;10.80;5.90;;;13.70;69.70;;;;;;5063929;28;20470;-66
2023/05/05 03:07:54;;;;;;;9.87;5.43;;;13.70;69.80;;;;;;5070066;28;20521;-66
2023/05/05 03:10:35;;;;;;;8.37;5.63;;;13.70;69.70;;;;;;5071540;28;20461;-66
2023/05/05 03:13:12;;;;;;;8.40;5.30;;;13.70;69.60;;;;;;5068298;28;20492;-66
2023/05/05 03:15:52;;;;;;;10.83;6.13;;;13.70;69.60;;;;;;5063569;28;20526;-66
2023/05/05 03:18:27;;;;;;;11.00;6.33;;;13.60;69.60;;;;;;5069565;28;20471;-66
2023/05/05 03:21:11;;;;;;;9.53;6.17;;;13.60;69.70;;;;;;5069017;28;20468;-66
2023/05/05 03:23:50;;;;;;;8.43;5.17;;;13.60;69.70;;;;;;5067913;28;20552;-66
2023/05/05 03:26:27;;;;;;;8.40;5.53;;;13.60;69.70;;;;;;5070092;28;20470;-66
2023/05/05 03:31:45;;;;;;;8.67;5.93;;;13.50;69.70;;;;;;5068042;28;20508;-66
2023/05/05 03:34:21;;;;;;;10.30;6.07;;;13.50;69.70;;;;;;5069352;28;20999;-66
2023/05/05 03:36:52;;;;;;;9.03;5.23;;;13.50;69.70;;;;;;5070475;28;20478;-66
2023/05/05 03:39:27;;;;;;;10.17;6.33;;;13.40;69.80;;;;;;5068882;28;20471;-66
2023/05/05 03:42:06;;;;;;;9.10;5.53;;;13.40;69.90;;;;;;5069561;28;20453;-68
2023/05/05 03:44:48;;;;;;;9.50;5.53;;;13.40;69.80;;;;;;5070081;28;20949;-66
2023/05/05 03:47:27;;;;;;;9.10;5.10;;;13.40;69.90;;;;;;5068890;28;20460;-66
2023/05/05 03:50:01;;;;;;;10.90;5.93;;;13.30;69.90;;;;;;5069368;28;20467;-66
2023/05/05 03:52:40;;;;;;;10.10;6.00;;;13.30;69.90;;;;;;5066870;28;20472;-66
2023/05/05 03:55:15;;;;;;;8.90;5.53;;;13.30;69.80;;;;;;5065838;28;20502;-66
2023/05/05 03:57:48;;;;;;;9.70;6.40;;;13.30;70.00;;;;;;5068471;28;20509;-66
2023/05/05 04:00:28;;;;;;;10.40;5.97;;;13.20;70.00;;;;;;5066950;28;20476;-67
2023/05/05 04:03:05;;;;;;;12.73;6.83;;;13.20;70.10;;;;;;5067621;28;21045;-67
2023/05/05 04:05:45;;;;;;;9.40;6.03;;;13.20;70.10;;;;;;5070178;28;20468;-66
2023/05/05 04:08:20;;;;;;;14.63;6.40;;;13.20;70.10;;;;;;5069460;28;20458;-67
2023/05/05 04:11:04;;;;;;;8.70;5.70;;;13.20;70.20;;;;;;5069926;28;20459;-66
2023/05/05 04:13:36;;;;;;;13.53;6.77;;;13.20;70.30;;;;;;5068749;28;20990;-67
2023/05/05 04:16:07;;;;;;;12.50;7.20;;;13.10;70.20;;;;;;5065193;28;20987;-67
2023/05/05 04:18:39;;;;;;;13.10;6.70;;;13.10;70.30;;;;;;5068274;28;20462;-66
2023/05/05 04:21:11;;;;;;;13.40;6.17;;;13.00;70.40;;;;;;5068608;28;20464;-67
2023/05/05 04:23:49;;;;;;;10.20;6.60;;;13.00;70.40;;;;;;5069169;28;20531;-66
2023/05/05 04:26:34;;;;;;;9.60;6.10;;;13.00;70.50;;;;;;5068762;28;20464;-67
2023/05/05 04:29:09;;;;;;;10.37;6.97;;;13.00;70.60;;;;;;5069576;28;20460;-66
2023/05/05 04:31:45;;;;;;;10.03;6.53;;;13.00;70.60;;;;;;5060607;28;20581;-68
2023/05/05 04:34:31;;;;;;;11.00;6.03;;;13.00;70.60;;;;;;5069170;28;20465;-68
2023/05/05 04:37:02;;;;;;;9.00;6.23;;;13.00;70.70;;;;;;5068332;28;20486;-67
2023/05/05 04:39:40;;;;;;;12.30;6.60;;;13.00;70.70;;;;;;5068358;28;20860;-69
2023/05/05 04:42:23;;;;;;;10.10;6.90;;;13.10;70.70;;;;;;5066868;28;20464;-70
2023/05/05 04:45:02;;;;;;;10.03;6.50;;;13.10;70.90;;;;;;5063898;28;20468;-68
2023/05/05 04:47:39;;;;;;;12.27;7.40;;;13.20;71.00;;;;;;5071644;28;20452;-68
2023/05/05 04:50:12;;;;;;;9.70;5.97;;;13.30;71.00;;;;;;5069575;28;20497;-68
2023/05/05 04:52:53;;;;;;;10.10;6.10;;;13.40;71.10;;;;;;5067776;28;20980;-66
2023/05/05 04:55:31;;;;;;;9.20;6.40;;;13.50;71.10;;;;;;5067485;28;20493;-66
2023/05/05 04:58:04;;;;;;;9.60;5.57;;;13.70;71.20;;;;;;5071130;28;21106;-67
2023/05/05 05:00:37;;;;;;;9.67;6.20;;;13.90;71.30;;;;;;5066806;28;20581;-66
2023/05/05 05:03:10;;;;;;;10.00;6.00;;;14.00;71.40;;;;;;5065280;28;20466;-66
2023/05/05 05:05:52;;;;;;;9.30;6.10;;;14.20;71.70;;;;;;5068277;28;20952;-66
2023/05/05 05:08:24;;;;;;;11.60;6.50;;;14.40;71.90;;;;;;5066583;28;20522;-67
2023/05/05 05:11:01;;;;;;;9.90;5.43;;;14.60;71.10;;;;;;5072688;28;20530;-66
2023/05/05 05:13:41;;;;;;;10.63;6.60;;;14.60;70.60;;;;;;5069550;28;20467;-66
2023/05/05 05:16:11;;;;;;;11.67;6.90;;;14.50;70.40;;;;;;5066613;28;20461;-66
2023/05/05 05:18:49;;;;;;;11.53;6.43;;;14.40;70.40;;;;;;5069836;28;20472;-67
2023/05/05 05:21:23;;;;;;;10.43;6.67;;;14.40;70.60;;;;;;5068881;28;20466;-66
2023/05/05 05:23:58;;;;;;;10.23;6.73;;;14.50;70.60;;;;;;5069866;28;20572;-66
2023/05/05 05:26:31;;;;;;;10.03;6.00;;;14.90;71.90;;;;;;5068834;28;20944;-66
2023/05/05 05:29:07;;;;;;;11.40;6.87;;;15.60;71.50;;;;;;5068033;28;20468;-66
2023/05/05 05:31:36;;;;;;;12.07;7.17;;;16.70;70.70;;;;;;5064973;28;20474;-66
2023/05/05 05:34:17;;;;;;;10.10;6.10;;;17.80;69.30;;;;;;5067529;28;20786;-66
2023/05/05 05:36:58;;;;;;;11.50;6.87;;;18.90;67.80;;;;;;5065811;28;20460;-66
2023/05/05 05:39:38;;;;;;;12.03;6.70;;;19.90;66.30;;;;;;5068872;28;20542;-68
2023/05/05 05:42:15;;;;;;;12.70;6.33;;;20.80;65.10;;;;;;5067565;28;20462;-67
2023/05/05 05:45:01;;;;;;;10.63;6.20;;;21.60;64.10;;;;;;5060705;28;20463;-67
2023/05/05 05:47:37;;;;;;;9.60;6.03;;;22.40;62.50;;;;;;5067925;28;20466;-67
2023/05/05 05:50:12;;;;;;;10.90;6.33;;;23.20;61.40;;;;;;5067931;28;20479;-67
2023/05/05 05:52:41;;;;;;;11.23;6.90;;;23.80;59.90;;;;;;5062359;28;20460;-67
2023/05/05 05:55:20;;;;;;;13.00;6.90;;;24.20;58.60;;;;;;5069452;28;20483;-67
2023/05/05 05:57:51;;;;;;;15.17;7.03;;;24.50;57.60;;;;;;5062567;28;20511;-67
2023/05/05 06:00:30;;;;;;;8.57;6.10;;;24.60;56.80;;;;;;5070733;28;20456;-67
2023/05/05 06:03:06;;;;;;;10.47;7.80;;;24.50;55.60;;;;;;5067235;28;20461;-67
2023/05/05 06:05:47;;;;;;;11.33;7.00;;;23.70;54.80;;;;;;5068304;28;20464;-67
2023/05/05 06:08:22;;;;;;;11.60;7.10;;;22.50;55.10;;;;;;5069603;28;20947;-67
2023/05/05 06:10:59;;;;;;;11.10;7.07;;;21.20;55.80;;;;;;5070470;28;20555;-68
2023/05/05 06:13:31;;;;;;;15.93;8.30;;;20.10;56.70;;;;;;5068271;28;20458;-67
2023/05/05 06:16:24;;;;;;;10.80;7.33;;;19.20;57.70;;;;;;5066945;28;20498;-67
2023/05/05 06:18:56;;;;;;;14.03;8.10;;;18.50;58.60;;;;;;5069006;28;20564;-67
2023/05/05 06:21:27;;;;;;;11.40;6.90;;;18.00;59.30;;;;;;5069567;28;20457;-68
2023/05/05 06:23:59;;;;;;;13.03;7.30;;;17.60;60.10;;;;;;5070980;28;20450;-67
2023/05/05 06:26:44;;;;;;;10.90;7.17;;;17.20;60.70;;;;;;5068251;28;20469;-67
2023/05/05 06:29:22;;;;;;;15.70;7.33;;;16.90;61.30;;;;;;5067880;28;20931;-67
2023/05/05 06:32:09;;;;;;;11.90;7.90;;;16.80;61.80;;;;;;5066902;28;21146;-67
2023/05/05 06:34:47;;;;;;;14.93;8.27;;;16.70;62.40;;;;;;5067743;28;20551;-67
2023/05/05 06:37:19;;;;;;;13.07;7.40;;;16.50;62.60;;;;;;5066533;28;20626;-67
2023/05/05 06:39:58;;;;;;;10.50;7.13;;;16.50;62.90;;;;;;5068769;28;20582;-67
2023/05/05 06:42:29;;;;;;;12.43;7.23;;;16.40;63.10;;;;;;5067592;28;20445;-67
2023/05/05 06:45:12;;;;;;;11.37;7.50;;;16.40;63.40;;;;;;5066941;28;20457;-67
2023/05/05 06:47:51;;;;;;;14.80;7.60;;;16.40;63.70;;;;;;5069828;28;20451;-67
2023/05/05 06:53:21;;;;;;;11.07;7.20;;;16.30;64.00;;;;;;5067884;28;20461;-67
2023/05/05 06:55:59;;;;;;;11.67;7.07;;;16.20;64.30;;;;;;5069041;28;20456;-67
2023/05/05 06:58:31;;;;;;;11.30;6.87;;;16.20;64.50;;;;;;5068520;28;21285;-66
2023/05/05 07:01:08;;;;;;;12.30;7.50;;;16.10;64.70;;;;;;5066632;28;20485;-67
2023/05/05 07:04:01;;;;;;;12.50;8.40;;;16.10;64.90;;;;;;5067277;28;20462;-67
2023/05/05 07:06:34;;;;;;;10.33;7.03;;;16.20;65.20;;;;;;5068031;28;20477;-68
2023/05/05 07:09:08;;;;;;;14.13;7.60;;;16.20;65.20;;;;;;5069270;28;20519;-67
2023/05/05 07:11:46;;;;;;;13.60;7.33;;;16.30;65.30;;;;;;5065726;28;21088;-67
2023/05/05 07:14:20;;;;;;;11.73;7.00;;;16.30;65.40;;;;;;5065951;28;20459;-67
2023/05/05 07:16:52;;;;;;;19.67;7.63;;;16.40;65.50;;;;;;5067771;28;20518;-67
2023/05/05 07:19:38;;;;;;;13.27;8.10;;;16.40;65.60;;;;;;5067425;28;20482;-67
2023/05/05 07:22:11;;;;;;;14.20;8.00;;;16.50;65.60;;;;;;5068147;28;20973;-67
2023/05/05 07:24:56;;;;;;;11.83;7.13;;;16.50;65.70;;;;;;5066152;28;20515;-67
2023/05/05 07:27:36;;;;;;;14.40;7.33;;;16.60;65.80;;;;;;5067082;28;20519;-67
2023/05/05 07:30:12;;;;;;;13.17;7.90;;;16.60;65.90;;;;;;5065239;28;20464;-68
2023/05/05 07:32:49;;;;;;;13.20;8.60;;;16.70;66.00;;;;;;5065790;28;20471;-67
2023/05/05 07:35:23;;;;;;;11.73;8.10;;;16.80;66.00;;;;;;5069068;28;20489;-67
2023/05/05 07:38:01;;;;;;;13.30;8.33;;;16.80;66.20;;;;;;5067457;28;20987;-67
2023/05/05 07:40:41;;;;;;;12.00;7.30;;;16.90;66.30;;;;;;5068805;28;20461;-67
2023/05/05 07:43:21;;;;;;;11.10;7.47;;;16.90;66.50;;;;;;5070066;28;20441;-67
2023/05/05 07:45:49;;;;;;;12.67;7.97;;;16.90;66.60;;;;;;5069328;28;20462;-67
2023/05/05 07:48:29;;;;;;;13.80;8.07;;;17.00;66.60;;;;;;5070966;28;20482;-67
2023/05/05 07:51:06;;;;;;;13.87;8.30;;;16.90;66.80;;;;;;5070344;28;20464;-67
2023/05/05 07:53:45;;;;;;;16.23;7.47;;;17.00;66.90;;;;;;5072633;28;20453;-67
2023/05/05 07:56:23;;;;;;;12.77;7.90;;;17.00;67.00;;;;;;5069037;28;20783;-67
2023/05/05 07:58:55;;;;;;;14.50;6.73;;;17.10;67.00;;;;;;5074716;28;21105;-67
2023/05/05 08:01:36;;;;;;;13.03;7.70;;;17.10;67.20;;;;;;5073544;28;20486;-67
2023/05/05 08:04:17;;;;;;;12.30;7.43;;;17.20;67.30;;;;;;5071885;28;20449;-67
2023/05/05 08:06:58;;;;;;;11.80;8.20;;;17.30;67.30;;;;;;5072808;28;20465;-67
2023/05/05 08:09:38;;;;;;;20.10;8.80;;;17.40;67.30;;;;;;5071539;28;20521;-67
2023/05/05 08:12:18;;;;;;;18.43;7.73;;;17.50;67.40;;;;;;5070944;28;20564;-67
2023/05/05 08:14:52;;;;;;;14.63;7.40;;;17.60;67.50;;;;;;5076365;28;20950;-67
2023/05/05 08:17:24;;;;;;;12.53;7.73;;;17.70;67.70;;;;;;5072525;28;20458;-67
2023/05/05 08:20:00;;;;;;;12.83;8.30;;;17.80;67.70;;;;;;5074288;28;20505;-67
2023/05/05 08:22:41;;;;;;;9.77;6.67;;;17.80;67.80;;;;;;5068658;28;20443;-67
2023/05/05 08:25:21;;;;;;;13.97;8.20;;;17.90;67.90;;;;;;5070325;28;20950;-67
2023/05/05 08:27:56;;;;;;;10.17;7.13;;;18.00;67.90;;;;;;5074325;28;20450;-67
2023/05/05 08:30:36;;;;;;;15.70;7.17;;;18.10;67.80;;;;;;5067888;28;21513;-67
2023/05/05 08:33:11;;;;;;;10.87;7.40;;;18.20;67.80;;;;;;5071174;28;20454;-67
2023/05/05 08:38:35;;;;;;;15.30;7.17;;;18.40;67.90;;;;;;5070935;28;20458;-67
2023/05/05 08:41:12;;;;;;;9.13;6.80;;;18.40;68.10;;;;;;5074714;28;20484;-67
2023/05/05 08:43:45;;;;;;;14.97;7.00;;;18.40;68.20;;;;;;5070524;28;20453;-68
2023/05/05 08:46:25;;;;;;;11.80;7.53;;;18.40;68.30;;;;;;5074144;28;20457;-67
2023/05/05 08:49:02;;;;;;;11.20;6.70;;;18.50;68.20;;;;;;5070518;28;20793;-67
2023/05/05 08:51:40;;;;;;;10.17;7.30;;;18.50;68.30;;;;;;5058624;28;20452;-67
2023/05/05 08:54:34;;;;;;;9.93;7.00;;;18.50;68.50;;;;;;5072786;28;20459;-67
2023/05/05 08:57:12;;;;;;;10.60;6.93;;;18.60;68.40;;;;;;5070704;28;21243;-67
2023/05/05 08:59:43;;;;;;;9.23;6.23;;;18.60;68.60;;;;;;5072682;28;21433;-67
2023/05/05 09:02:14;;;;;;;12.17;6.60;;;18.60;68.60;;;;;;5068531;28;20476;-67
2023/05/05 09:04:52;;;;;;;11.80;6.10;;;18.70;68.70;;;;;;5071639;28;20460;-68
2023/05/05 09:07:24;;;;;;;9.27;6.33;;;18.80;68.70;;;;;;5071882;28;20504;-67
2023/05/05 09:10:11;;;;;;;12.07;6.70;;;18.90;68.60;;;;;;5073087;28;20456;-67
2023/05/05 09:12:44;;;;;;;10.53;6.90;;;19.00;68.90;;;;;;5071966;28;20927;-67
2023/05/05 09:15:18;;;;;;;11.30;6.27;;;19.00;68.80;;;;;;5070025;28;20499;-67
2023/05/05 09:17:48;;;;;;;11.80;7.00;;;19.10;68.70;;;;;;5071903;28;20456;-67
2023/05/05 09:20:23;;;;;;;9.67;6.50;;;19.20;68.80;;;;;;5069708;28;20500;-67
2023/05/05 09:22:56;;;;;;;10.20;5.90;;;19.20;68.90;;;;;;5069715;28;20771;-67
2023/05/05 09:25:26;;;;;;;10.07;6.60;;;19.30;69.00;;;;;;5070028;28;20476;-67
2023/05/05 09:28:09;;;;;;;10.13;7.00;;;19.40;69.10;;;;;;5071056;28;20536;-67
2023/05/05 09:30:49;;;;;;;11.33;6.53;;;19.50;69.40;;;;;;5071471;28;21339;-67
2023/05/05 09:33:31;;;;;;;8.37;5.77;;;19.60;69.10;;;;;;5069055;28;20469;-67
2023/05/05 09:36:05;;;;;;;12.87;6.70;;;19.60;68.90;;;;;;5071379;28;20453;-66
2023/05/05 09:39:03;;;;;;;8.40;5.87;;;19.70;68.80;;;;;;5070555;28;20456;-67
2023/05/05 09:41:43;;;;;;;9.10;5.60;;;19.70;69.00;;;;;;5070135;28;20863;-67
2023/05/05 09:44:15;;;;;;;9.77;5.90;;;19.80;69.30;;;;;;5069103;28;20456;-67
2023/05/05 09:46:54;;;;;;;8.10;5.60;;;19.80;69.30;;;;;;5068901;28;20550;-67
2023/05/05 09:49:26;;;;;;;13.63;5.63;;;19.80;69.10;;;;;;5068934;28;20457;-67
2023/05/05 09:52:01;;;;;;;8.43;5.83;;;19.90;69.10;;;;;;5067201;28;20473;-67
2023/05/05 09:54:33;;;;;;;11.13;6.27;;;19.90;69.40;;;;;;5066481;28;20450;-67
2023/05/05 09:57:16;;;;;;;11.07;5.47;;;20.00;69.20;;;;;;5066649;28;20755;-67
2023/05/05 09:59:59;;;;;;;11.07;5.40;;;20.00;69.20;;;;;;5065260;28;20543;-67
2023/05/05 10:02:59;;;;;;;7.40;4.80;;;20.00;69.30;;;;;;5032391;28;20945;-68
2023/05/05 10:05:40;;;;;;;9.20;6.00;;;20.10;69.40;;;;;;5039861;28;21079;-68
2023/05/05 10:08:18;;;;;;;9.97;5.90;;;20.20;69.10;;;;;;5042686;28;20469;-67
2023/05/05 10:10:58;;;;;;;13.90;5.40;;;20.20;69.30;;;;;;5044561;28;20489;-67
2023/05/05 10:13:45;;;;;;;8.37;5.10;;;20.20;69.40;;;;;;5037147;28;20457;-68
2023/05/05 10:16:23;;;;;;;7.07;5.40;;;20.20;69.20;;;;;;5036103;28;20536;-67
2023/05/05 10:18:58;;;;;;;7.37;5.27;;;20.30;69.40;;;;;;5026536;28;21007;-67
2023/05/05 10:21:40;;;;;;;10.40;5.70;;;20.40;69.20;;;;;;5040296;28;20510;-67
2023/05/05 10:24:20;;;;;;;7.20;4.60;;;20.40;69.10;;;;;;5047524;28;20462;-67
2023/05/05 10:26:58;;;;;;;8.80;5.70;;;20.50;69.10;;;;;;5044259;28;20465;-67
2023/05/05 10:29:52;;;;;;;7.93;5.13;;;20.60;69.30;;;;;;5040982;28;20454;-67
2023/05/05 10:32:28;;;;;;;7.73;5.07;;;20.70;69.20;;;;;;5030068;28;20509;-68
2023/05/05 10:35:08;;;;;;;8.63;4.90;;;20.70;69.00;;;;;;5064164;28;20509;-67
2023/05/05 10:37:43;;;;;;;7.80;4.83;;;20.70;69.00;;;;;;5067339;28;20564;-68
2023/05/05 10:40:16;;;;;;;6.43;4.47;;;20.80;68.80;;;;;;5068593;28;20973;-67
2023/05/05 10:43:03;;;;;;;7.67;4.70;;;20.80;68.60;;;;;;5066776;28;20454;-67
2023/05/05 10:45:41;;;;;;;7.20;4.47;;;20.90;68.40;;;;;;5066741;28;20453;-67
2023/05/05 10:48:25;;;;;;;8.73;4.03;;;20.90;67.90;;;;;;5061498;28;20549;-67
2023/05/05 10:51:06;;;;;;;9.00;4.20;;;20.90;67.80;;;;;;5067398;28;20977;-67
2023/05/05 10:53:51;;;;;;;7.70;4.30;;;21.00;67.60;;;;;;5064910;28;20447;-67
2023/05/05 10:56:31;;;;;;;7.20;4.80;;;21.00;67.50;;;;;;5067933;28;20472;-68
2023/05/05 10:59:03;;;;;;;7.90;4.20;;;21.00;67.50;;;;;;5063699;28;20450;-68
2023/05/05 11:01:40;;;;;;;8.50;4.70;;;21.00;67.70;;;;;;5076845;28;20502;-67
2023/05/05 11:04:29;;;;;;;8.50;5.33;;;21.10;67.80;;;;;;5067307;28;20457;-67
2023/05/05 11:07:29;;;;;;;8.50;3.90;;;21.20;68.00;;;;;;5065367;28;20461;-67
2023/05/05 11:10:05;;;;;;;6.90;4.10;;;21.30;67.70;;;;;;5064079;28;20752;-67
2023/05/05 11:13:16;;;;;;;6.10;3.60;;;21.30;67.40;;;;;;5063542;28;20862;-67
2023/05/05 11:15:55;;;;;;;9.23;4.13;;;21.30;67.30;;;;;;5064019;28;20465;-67
2023/05/05 11:18:46;;;;;;;7.50;4.23;;;21.30;67.40;;;;;;5061968;28;20898;-67
2023/05/05 11:21:18;;;;;;;6.97;3.40;;;21.40;67.40;;;;;;5066508;28;20489;-67
2023/05/05 11:23:56;;;;;;;6.73;3.50;;;21.40;67.30;;;;;;5067088;28;20449;-67
2023/05/05 11:26:51;;;;;;;10.43;3.47;;;21.40;67.00;;;;;;5068412;28;20453;-67
2023/05/05 11:29:27;;;;;;;8.37;3.40;;;21.50;66.70;;;;;;5069797;28;20457;-67
2023/05/05 11:32:18;;;;;;;5.70;2.77;;;21.50;66.70;;;;;;5068184;28;20473;-67
2023/05/05 11:35:02;;;;;;;5.70;3.40;;;21.50;66.50;;;;;;5069900;28;20501;-67
2023/05/05 11:37:38;;;;;;;5.70;2.60;;;21.50;66.30;;;;;;5068936;28;20614;-67
2023/05/05 11:40:32;;;;;;;5.50;2.97;;;21.60;66.20;;;;;;5067739;28;20486;-67
2023/05/05 11:43:11;;;;;;;5.37;2.87;;;21.70;65.60;;;;;;5063990;28;20539;-67
2023/05/05 11:45:41;;;;;;;5.13;3.00;;;21.60;65.70;;;;;;5065142;28;20520;-67
2023/05/05 11:48:27;;;;;;;4.67;2.33;;;21.70;65.80;;;;;;5068944;28;21343;-67
2023/05/05 11:51:04;;;;;;;4.83;1.80;;;21.70;65.50;;;;;;5066785;28;20519;-67
2023/05/05 11:53:38;;;;;;;5.47;2.33;;;21.80;65.10;;;;;;5065923;28;20546;-67
2023/05/05 11:56:07;;;;;;;5.30;2.60;;;21.80;64.80;;;;;;5068250;28;20461;-67
2023/05/05 11:58:41;;;;;;;4.90;1.90;;;21.80;64.50;;;;;;5067894;28;20485;-66
2023/05/05 12:01:14;;;;;;;6.03;1.50;;;21.80;64.10;;;;;;5066411;28;20568;-66
2023/05/05 12:03:54;;;;;;;5.20;1.70;;;21.90;64.00;;;;;;5068889;28;20465;-66
2023/05/05 12:06:27;;;;;;;5.80;2.00;;;21.90;63.40;;;;;;5067964;28;20465;-67
2023/05/05 12:09:00;;;;;;;4.40;1.73;;;22.00;63.20;;;;;;5066352;28;20461;-66
2023/05/05 12:11:38;;;;;;;6.80;1.37;;;22.00;63.20;;;;;;5068986;28;20930;-66
2023/05/05 12:14:14;;;;;;;5.13;1.30;;;22.10;62.80;;;;;;5067238;28;20467;-66
2023/05/05 12:16:55;;;;;;;3.80;1.20;;;22.10;62.40;;;;;;5068626;28;20455;-66
2023/05/05 12:19:35;;;;;;;4.83;1.30;;;22.10;62.10;;;;;;5068963;28;20537;-66
2023/05/05 12:22:16;;;;;;;3.50;1.00;;;22.20;62.00;;;;;;5067229;28;20949;-66
2023/05/05 12:24:58;;;;;;;5.03;1.20;;;22.20;61.70;;;;;;5071406;28;20849;-67
2023/05/05 12:27:36;;;;;;;4.10;1.20;;;22.30;61.70;;;;;;5066632;28;20547;-67
2023/05/05 12:30:19;;;;;;;7.17;1.10;;;22.30;61.60;;;;;;5066692;28;20450;-68
2023/05/05 12:32:48;;;;;;;6.37;1.80;;;22.40;61.60;;;;;;5069440;28;20507;-66
2023/05/05 12:35:28;;;;;;;5.30;1.23;;;22.50;61.00;;;;;;5069262;28;20552;-66
2023/05/05 12:38:03;;;;;;;4.40;1.10;;;22.40;61.00;;;;;;5070778;28;20499;-66
2023/05/05 12:40:57;;;;;;;3.87;1.37;;;22.40;60.60;;;;;;5071092;28;20464;-67
2023/05/05 12:43:31;;;;;;;3.37;1.00;;;22.50;60.50;;;;;;5069738;28;20449;-66
2023/05/05 12:46:08;;;;;;;6.30;1.13;;;22.50;60.50;;;;;;5068191;28;20795;-66
2023/05/05 12:48:42;;;;;;;6.50;1.77;;;22.60;60.50;;;;;;5069280;28;20566;-66
2023/05/05 12:51:22;;;;;;;5.43;1.40;;;22.60;60.40;;;;;;5067640;28;20517;-67
2023/05/05 12:54:07;;;;;;;4.60;1.70;;;22.50;60.50;;;;;;5069457;28;21024;-67
2023/05/05 12:56:39;;;;;;;7.00;1.53;;;22.50;60.00;;;;;;5069704;28;20468;-66
2023/05/05 12:59:13;;;;;;;7.80;1.57;;;22.60;60.10;;;;;;5065776;28;21368;-66
2023/05/05 13:01:56;;;;;;;5.10;1.83;;;22.70;60.00;;;;;;5064092;28;20490;-66
2023/05/05 13:04:28;;;;;;;5.17;1.60;;;22.80;59.90;;;;;;5069708;28;20446;-66
2023/05/05 13:07:13;;;;;;;4.20;1.40;;;22.70;60.20;;;;;;5068863;28;20980;-67
2023/05/05 13:10:09;;;;;;;7.23;1.87;;;22.70;60.10;;;;;;5068119;28;21255;-67
2023/05/05 13:12:49;;;;;;;5.43;1.70;;;22.70;60.10;;;;;;5068388;28;20545;-67
2023/05/05 13:15:23;;;;;;;5.43;1.93;;;22.70;60.10;;;;;;5070806;28;20451;-68
2023/05/05 13:17:59;;;;;;;4.63;1.60;;;22.70;59.90;;;;;;5067609;28;20905;-67
2023/05/05 13:20:38;;;;;;;5.93;1.70;;;22.60;59.70;;;;;;5071609;28;20461;-66
2023/05/05 13:23:13;;;;;;;4.03;1.50;;;22.60;59.60;;;;;;5070261;28;20544;-66
2023/05/05 13:26:00;;;;;;;4.50;2.00;;;22.70;59.70;;;;;;5065949;28;20465;-66
2023/05/05 13:28:37;;;;;;;4.70;1.90;;;22.70;59.90;;;;;;5072733;28;20441;-66
2023/05/05 13:31:16;;;;;;;5.23;2.07;;;22.70;59.80;;;;;;5069157;28;20981;-66
2023/05/05 13:33:55;;;;;;;5.83;1.90;;;22.70;59.90;;;;;;5082938;28;20462;-67
2023/05/05 13:36:30;;;;;;;5.53;1.63;;;22.70;60.20;;;;;;5070584;28;20531;-66
2023/05/05 13:39:05;;;;;;;9.67;2.20;;;22.80;60.60;;;;;;5069207;28;20450;-66
2023/05/05 13:41:48;;;;;;;8.30;2.50;;;22.80;60.80;;;;;;5068018;28;20805;-67
2023/05/05 13:44:18;;;;;;;6.63;2.37;;;22.90;60.90;;;;;;5067813;28;20520;-66
2023/05/05 13:47:03;;;;;;;9.73;2.70;;;22.90;60.90;;;;;;5067622;28;20462;-66
2023/05/05 13:49:49;;;;;;;9.80;2.70;;;22.80;60.80;;;;;;5069270;28;20468;-67